Terminal Aerodrome Forecast
Issued by NWS

Home | Current Version | Previous Version | Text Only | Print | Product List | Glossary On
Versions: 1 2 3 4 5 6 7 8 9 10 11 12 13 14
305
FTUS42 KMLB 251736
TAFTIX
TAF
KTIX 251736Z 2518/2618 09008KT P6SM SCT040 SCT300
     FM260000 17005KT P6SM FEW025 SCT120 SCT250
     FM260700 22003KT P6SM SCT030 SCT250
     FM261400 VRB04KT P6SM SCT300=

USA.gov is the U.S. government's official web portal to all federal, state and local government web resources and services.